sensor_id;sensor_type;location;lat;lon;timestamp;P1;durP1;ratioP1;P2;durP2;ratioP2
26824;SDS011;14402;48.178;11.566;2024-01-25T00:00:16;7.4;;;2.3;;
26824;SDS011;14402;48.178;11.566;2024-01-25T00:00:46;9.1;;;2.5;;
26824;SDS011;14402;48.178;11.566;2024-01-25T00:01:16;10.9;;;2.7;;
26824;SDS011;14402;48.178;11.566;2024-01-25T00:01:46;10.9;;;2.7;;
26824;SDS011;14402;48.178;11.566;2024-01-25T00:02:16;10.9;;;2.7;;
26824;SDS011;14402;48.178;11.566;2024-01-25T00:02:46;10.0;;;2.6;;
26824;SDS011;14402;48.178;11.566;2024-01-25T00:03:16;9.1;;;2.4;;
26824;SDS011;14402;48.178;11.566;2024-01-25T00:03:46;9.1;;;2.4;;
26824;SDS011;14402;48.178;11.566;2024-01-25T00:04:16;9.1;;;2.4;;
26824;SDS011;14402;48.178;11.566;2024-01-25T00:04:46;9.4;;;2.5;;
26824;SDS011;14402;48.178;11.566;2024-01-25T00:05:16;9.7;;;2.5;;
26824;SDS011;14402;48.178;11.566;2024-01-25T00:05:46;9.7;;;2.5;;
26824;SDS011;14402;48.178;11.566;2024-01-25T00:06:16;9.7;;;2.5;;
26824;SDS011;14402;48.178;11.566;2024-01-25T00:06:46;9.2;;;2.3;;
26824;SDS011;14402;48.178;11.566;2024-01-25T00:07:16;8.8;;;2.2;;
26824;SDS011;14402;48.178;11.566;2024-01-25T00:07:46;8.8;;;2.2;;
26824;SDS011;14402;48.178;11.566;2024-01-25T00:08:16;8.8;;;2.2;;
26824;SDS011;14402;48.178;11.566;2024-01-25T00:08:46;8.1;;;2.7;;
26824;SDS011;14402;48.178;11.566;2024-01-25T00:09:16;7.3;;;3.2;;
26824;SDS011;14402;48.178;11.566;2024-01-25T00:09:46;7.3;;;3.2;;
26824;SDS011;14402;48.178;11.566;2024-01-25T00:10:17;7.3;;;3.2;;
26824;SDS011;14402;48.178;11.566;2024-01-25T00:10:47;7.0;;;2.7;;
26824;SDS011;14402;48.178;11.566;2024-01-25T00:11:17;6.7;;;2.2;;
26824;SDS011;14402;48.178;11.566;2024-01-25T00:11:47;6.7;;;2.2;;
26824;SDS011;14402;48.178;11.566;2024-01-25T00:12:17;6.7;;;2.2;;
26824;SDS011;14402;48.178;11.566;2024-01-25T00:12:47;7.7;;;2.2;;
26824;SDS011;14402;48.178;11.566;2024-01-25T00:13:17;8.6;;;2.2;;
26824;SDS011;14402;48.178;11.566;2024-01-25T00:13:47;8.6;;;2.2;;
26824;SDS011;14402;48.178;11.566;2024-01-25T00:14:17;8.6;;;2.2;;
26824;SDS011;14402;48.178;11.566;2024-01-25T00:14:47;8.9;;;2.4;;
26824;SDS011;14402;48.178;11.566;2024-01-25T00:15:17;9.2;;;2.6;;
26824;SDS011;14402;48.178;11.566;2024-01-25T00:15:47;9.2;;;2.6;;
26824;SDS011;14402;48.178;11.566;2024-01-25T00:16:17;9.2;;;2.6;;
26824;SDS011;14402;48.178;11.566;2024-01-25T00:16:47;8.7;;;2.3;;
26824;SDS011;14402;48.178;11.566;2024-01-25T00:17:18;8.2;;;2.1;;
26824;SDS011;14402;48.178;11.566;2024-01-25T00:17:47;8.2;;;2.1;;
26824;SDS011;14402;48.178;11.566;2024-01-25T00:18:17;8.2;;;2.1;;
26824;SDS011;14402;48.178;11.566;2024-01-25T00:18:47;6.7;;;1.8;;
26824;SDS011;14402;48.178;11.566;2024-01-25T00:19:17;5.2;;;1.5;;
26824;SDS011;14402;48.178;11.566;2024-01-25T00:19:48;5.2;;;1.5;;
26824;SDS011;14402;48.178;11.566;2024-01-25T00:20:18;5.2;;;1.5;;
26824;SDS011;14402;48.178;11.566;2024-01-25T00:20:48;6.9;;;1.9;;
26824;SDS011;14402;48.178;11.566;2024-01-25T00:21:18;8.6;;;2.2;;
26824;SDS011;14402;48.178;11.566;2024-01-25T00:21:48;8.6;;;2.2;;
26824;SDS011;14402;48.178;11.566;2024-01-25T00:22:18;8.6;;;2.2;;
26824;SDS011;14402;48.178;11.566;2024-01-25T00:22:48;7.8;;;2.0;;
26824;SDS011;14402;48.178;11.566;2024-01-25T00:23:18;6.9;;;1.7;;
26824;SDS011;14402;48.178;11.566;2024-01-25T00:23:48;6.9;;;1.7;;
26824;SDS011;14402;48.178;11.566;2024-01-25T00:24:18;6.9;;;1.7;;
26824;SDS011;14402;48.178;11.566;2024-01-25T00:24:48;7.1;;;2.0;;
26824;SDS011;14402;48.178;11.566;2024-01-25T00:25:18;7.2;;;2.3;;
26824;SDS011;14402;48.178;11.566;2024-01-25T00:25:48;7.2;;;2.3;;
26824;SDS011;14402;48.178;11.566;2024-01-25T00:26:18;7.2;;;2.3;;
26824;SDS011;14402;48.178;11.566;2024-01-25T00:26:48;7.9;;;2.3;;
26824;SDS011;14402;48.178;11.566;2024-01-25T00:27:18;8.7;;;2.3;;
26824;SDS011;14402;48.178;11.566;2024-01-25T00:27:48;8.7;;;2.3;;
26824;SDS011;14402;48.178;11.566;2024-01-25T00:28:19;8.7;;;2.3;;
26824;SDS011;14402;48.178;11.566;2024-01-25T00:28:48;7.4;;;2.1;;
26824;SDS011;14402;48.178;11.566;2024-01-25T00:29:19;6.1;;;1.9;;
26824;SDS011;14402;48.178;11.566;2024-01-25T00:29:49;6.1;;;1.9;;
26824;SDS011;14402;48.178;11.566;2024-01-25T00:30:19;6.1;;;1.9;;
26824;SDS011;14402;48.178;11.566;2024-01-25T00:30:49;6.4;;;1.9;;
26824;SDS011;14402;48.178;11.566;2024-01-25T00:31:19;6.8;;;1.9;;
26824;SDS011;14402;48.178;11.566;2024-01-25T00:31:49;6.8;;;1.9;;
26824;SDS011;14402;48.178;11.566;2024-01-25T00:32:19;6.8;;;1.9;;
26824;SDS011;14402;48.178;11.566;2024-01-25T00:32:49;5.9;;;1.8;;
26824;SDS011;14402;48.178;11.566;2024-01-25T00:33:19;5.1;;;1.6;;
26824;SDS011;14402;48.178;11.566;2024-01-25T00:33:49;5.1;;;1.6;;
26824;SDS011;14402;48.178;11.566;2024-01-25T00:34:19;5.1;;;1.6;;
26824;SDS011;14402;48.178;11.566;2024-01-25T00:34:49;6.0;;;1.8;;
26824;SDS011;14402;48.178;11.566;2024-01-25T00:35:19;6.9;;;2.1;;
26824;SDS011;14402;48.178;11.566;2024-01-25T00:35:49;6.9;;;2.1;;
26824;SDS011;14402;48.178;11.566;2024-01-25T00:36:19;6.9;;;2.1;;
26824;SDS011;14402;48.178;11.566;2024-01-25T00:36:49;7.2;;;2.1;;
26824;SDS011;14402;48.178;11.566;2024-01-25T00:37:20;7.4;;;2.1;;
26824;SDS011;14402;48.178;11.566;2024-01-25T00:37:50;7.4;;;2.1;;
26824;SDS011;14402;48.178;11.566;2024-01-25T00:38:20;7.4;;;2.1;;
26824;SDS011;14402;48.178;11.566;2024-01-25T00:38:50;6.8;;;1.8;;
26824;SDS011;14402;48.178;11.566;2024-01-25T00:39:20;6.2;;;1.6;;
26824;SDS011;14402;48.178;11.566;2024-01-25T00:39:50;6.2;;;1.6;;
26824;SDS011;14402;48.178;11.566;2024-01-25T00:40:20;6.2;;;1.6;;
26824;SDS011;14402;48.178;11.566;2024-01-25T00:40:50;5.8;;;1.9;;
26824;SDS011;14402;48.178;11.566;2024-01-25T00:41:20;5.4;;;2.2;;
26824;SDS011;14402;48.178;11.566;2024-01-25T00:41:50;5.4;;;2.2;;
26824;SDS011;14402;48.178;11.566;2024-01-25T00:42:21;5.4;;;2.2;;
26824;SDS011;14402;48.178;11.566;2024-01-25T00:42:50;5.9;;;2.1;;
26824;SDS011;14402;48.178;11.566;2024-01-25T00:43:20;6.5;;;2.0;;
26824;SDS011;14402;48.178;11.566;2024-01-25T00:43:50;6.5;;;2.0;;
26824;SDS011;14402;48.178;11.566;2024-01-25T00:44:20;6.5;;;2.0;;
26824;SDS011;14402;48.178;11.566;2024-01-25T00:44:50;6.7;;;2.0;;
26824;SDS011;14402;48.178;11.566;2024-01-25T00:45:20;6.8;;;1.9;;
26824;SDS011;14402;48.178;11.566;2024-01-25T00:45:50;6.8;;;1.9;;
26824;SDS011;14402;48.178;11.566;2024-01-25T00:46:20;6.8;;;1.9;;
26824;SDS011;14402;48.178;11.566;2024-01-25T00:46:50;6.9;;;1.9;;
26824;SDS011;14402;48.178;11.566;2024-01-25T00:47:21;7.1;;;1.9;;
26824;SDS011;14402;48.178;11.566;2024-01-25T00:47:51;7.1;;;1.9;;
26824;SDS011;14402;48.178;11.566;2024-01-25T00:48:21;7.1;;;1.9;;
26824;SDS011;14402;48.178;11.566;2024-01-25T00:48:51;6.5;;;1.8;;
26824;SDS011;14402;48.178;11.566;2024-01-25T00:49:21;5.9;;;1.6;;
26824;SDS011;14402;48.178;11.566;2024-01-25T00:49:51;5.9;;;1.6;;
26824;SDS011;14402;48.178;11.566;2024-01-25T00:50:21;5.9;;;1.6;;
26824;SDS011;14402;48.178;11.566;2024-01-25T00:50:51;5.9;;;1.7;;
26824;SDS011;14402;48.178;11.566;2024-01-25T00:51:21;6.0;;;1.8;;
26824;SDS011;14402;48.178;11.566;2024-01-25T00:51:53;6.0;;;1.8;;
26824;SDS011;14402;48.178;11.566;2024-01-25T00:52:21;6.0;;;1.8;;
26824;SDS011;14402;48.178;11.566;2024-01-25T00:52:51;5.2;;;1.6;;
26824;SDS011;14402;48.178;11.566;2024-01-25T00:53:21;4.4;;;1.5;;
26824;SDS011;14402;48.178;11.566;2024-01-25T00:53:51;4.4;;;1.5;;
26824;SDS011;14402;48.178;11.566;2024-01-25T00:54:21;4.4;;;1.5;;
26824;SDS011;14402;48.178;11.566;2024-01-25T00:54:51;5.4;;;1.6;;
26824;SDS011;14402;48.178;11.566;2024-01-25T00:55:21;6.3;;;1.7;;
26824;SDS011;14402;48.178;11.566;2024-01-25T00:55:51;6.3;;;1.7;;
26824;SDS011;14402;48.178;11.566;2024-01-25T00:56:21;6.3;;;1.7;;
26824;SDS011;14402;48.178;11.566;2024-01-25T00:56:51;6.3;;;1.7;;
26824;SDS011;14402;48.178;11.566;2024-01-25T00:57:21;6.3;;;1.7;;
26824;SDS011;14402;48.178;11.566;2024-01-25T00:57:52;6.3;;;1.7;;
26824;SDS011;14402;48.178;11.566;2024-01-25T00:58:22;6.3;;;1.7;;
26824;SDS011;14402;48.178;11.566;2024-01-25T00:58:52;6.1;;;1.7;;
26824;SDS011;14402;48.178;11.566;2024-01-25T00:59:22;5.8;;;1.7;;
26824;SDS011;14402;48.178;11.566;2024-01-25T00:59:52;5.8;;;1.7;;
26824;SDS011;14402;48.178;11.566;2024-01-25T01:00:22;5.8;;;1.7;;
26824;SDS011;14402;48.178;11.566;2024-01-25T01:00:52;5.8;;;1.7;;
26824;SDS011;14402;48.178;11.566;2024-01-25T01:01:22;5.8;;;1.7;;
26824;SDS011;14402;48.178;11.566;2024-01-25T01:01:52;5.8;;;1.7;;
26824;SDS011;14402;48.178;11.566;2024-01-25T01:02:22;5.8;;;1.7;;
26824;SDS011;14402;48.178;11.566;2024-01-25T01:02:52;6.4;;;1.7;;
26824;SDS011;14402;48.178;11.566;2024-01-25T01:03:22;7.0;;;1.6;;
26824;SDS011;14402;48.178;11.566;2024-01-25T01:03:52;7.0;;;1.6;;
26824;SDS011;14402;48.178;11.566;2024-01-25T01:04:22;7.0;;;1.6;;
26824;SDS011;14402;48.178;11.566;2024-01-25T01:04:52;6.6;;;1.8;;
26824;SDS011;14402;48.178;11.566;2024-01-25T01:05:22;6.2;;;1.9;;
26824;SDS011;14402;48.178;11.566;2024-01-25T01:05:52;6.2;;;1.9;;
26824;SDS011;14402;48.178;11.566;2024-01-25T01:06:22;6.2;;;1.9;;
26824;SDS011;14402;48.178;11.566;2024-01-25T01:06:52;6.8;;;2.0;;
26824;SDS011;14402;48.178;11.566;2024-01-25T01:07:23;7.3;;;2.0;;
26824;SDS011;14402;48.178;11.566;2024-01-25T01:07:53;7.3;;;2.0;;
26824;SDS011;14402;48.178;11.566;2024-01-25T01:08:23;7.3;;;2.0;;
26824;SDS011;14402;48.178;11.566;2024-01-25T01:08:53;6.9;;;1.9;;
26824;SDS011;14402;48.178;11.566;2024-01-25T01:09:23;6.4;;;1.8;;
26824;SDS011;14402;48.178;11.566;2024-01-25T01:09:53;6.4;;;1.8;;
26824;SDS011;14402;48.178;11.566;2024-01-25T01:10:23;6.4;;;1.8;;
26824;SDS011;14402;48.178;11.566;2024-01-25T01:10:53;5.9;;;1.6;;
26824;SDS011;14402;48.178;11.566;2024-01-25T01:11:23;5.5;;;1.5;;
26824;SDS011;14402;48.178;11.566;2024-01-25T01:11:53;5.5;;;1.5;;
26824;SDS011;14402;48.178;11.566;2024-01-25T01:12:23;5.5;;;1.5;;
26824;SDS011;14402;48.178;11.566;2024-01-25T01:12:53;5.3;;;1.6;;
26824;SDS011;14402;48.178;11.566;2024-01-25T01:13:23;5.1;;;1.8;;
26824;SDS011;14402;48.178;11.566;2024-01-25T01:13:53;5.1;;;1.8;;
26824;SDS011;14402;48.178;11.566;2024-01-25T01:14:23;5.1;;;1.8;;
26824;SDS011;14402;48.178;11.566;2024-01-25T01:14:53;5.8;;;1.8;;
26824;SDS011;14402;48.178;11.566;2024-01-25T01:15:23;6.5;;;1.9;;
26824;SDS011;14402;48.178;11.566;2024-01-25T01:15:53;6.5;;;1.9;;
26824;SDS011;14402;48.178;11.566;2024-01-25T01:16:23;6.5;;;1.9;;
26824;SDS011;14402;48.178;11.566;2024-01-25T01:16:53;5.8;;;1.8;;
26824;SDS011;14402;48.178;11.566;2024-01-25T01:17:24;5.2;;;1.7;;
26824;SDS011;14402;48.178;11.566;2024-01-25T01:17:53;5.2;;;1.7;;
26824;SDS011;14402;48.178;11.566;2024-01-25T01:18:24;5.2;;;1.7;;
26824;SDS011;14402;48.178;11.566;2024-01-25T01:18:54;5.8;;;1.9;;
26824;SDS011;14402;48.178;11.566;2024-01-25T01:19:24;6.4;;;2.0;;
26824;SDS011;14402;48.178;11.566;2024-01-25T01:19:54;6.4;;;2.0;;
26824;SDS011;14402;48.178;11.566;2024-01-25T01:20:24;6.4;;;2.0;;
26824;SDS011;14402;48.178;11.566;2024-01-25T01:20:54;6.9;;;2.0;;
26824;SDS011;14402;48.178;11.566;2024-01-25T01:21:24;7.3;;;2.1;;
26824;SDS011;14402;48.178;11.566;2024-01-25T01:21:54;7.3;;;2.1;;
26824;SDS011;14402;48.178;11.566;2024-01-25T01:22:24;7.3;;;2.1;;
26824;SDS011;14402;48.178;11.566;2024-01-25T01:22:54;7.2;;;2.0;;
26824;SDS011;14402;48.178;11.566;2024-01-25T01:23:24;7.0;;;1.9;;
26824;SDS011;14402;48.178;11.566;2024-01-25T01:23:54;7.0;;;1.9;;
26824;SDS011;14402;48.178;11.566;2024-01-25T01:24:24;7.0;;;1.9;;
26824;SDS011;14402;48.178;11.566;2024-01-25T01:24:54;7.1;;;1.9;;
26824;SDS011;14402;48.178;11.566;2024-01-25T01:25:24;7.2;;;1.9;;
26824;SDS011;14402;48.178;11.566;2024-01-25T01:25:54;7.2;;;1.9;;
26824;SDS011;14402;48.178;11.566;2024-01-25T01:26:24;7.2;;;1.9;;
26824;SDS011;14402;48.178;11.566;2024-01-25T01:26:54;6.9;;;1.8;;
26824;SDS011;14402;48.178;11.566;2024-01-25T01:27:24;6.6;;;1.8;;
26824;SDS011;14402;48.178;11.566;2024-01-25T01:27:55;6.6;;;1.8;;
26824;SDS011;14402;48.178;11.566;2024-01-25T01:28:25;6.6;;;1.8;;
26824;SDS011;14402;48.178;11.566;2024-01-25T01:28:55;6.2;;;1.8;;
26824;SDS011;14402;48.178;11.566;2024-01-25T01:29:25;5.9;;;1.9;;
26824;SDS011;14402;48.178;11.566;2024-01-25T01:29:55;5.9;;;1.9;;
26824;SDS011;14402;48.178;11.566;2024-01-25T01:30:25;5.9;;;1.9;;
26824;SDS011;14402;48.178;11.566;2024-01-25T01:30:55;5.7;;;1.8;;
26824;SDS011;14402;48.178;11.566;2024-01-25T01:31:25;5.4;;;1.7;;
26824;SDS011;14402;48.178;11.566;2024-01-25T01:31:55;5.4;;;1.7;;
26824;SDS011;14402;48.178;11.566;2024-01-25T01:32:25;5.4;;;1.7;;
26824;SDS011;14402;48.178;11.566;2024-01-25T01:32:55;7.2;;;2.0;;
26824;SDS011;14402;48.178;11.566;2024-01-25T01:33:25;9.1;;;2.2;;
26824;SDS011;14402;48.178;11.566;2024-01-25T01:33:55;9.1;;;2.2;;
26824;SDS011;14402;48.178;11.566;2024-01-25T01:34:25;9.1;;;2.2;;
26824;SDS011;14402;48.178;11.566;2024-01-25T01:34:55;7.7;;;2.0;;
26824;SDS011;14402;48.178;11.566;2024-01-25T01:35:25;6.2;;;1.9;;
26824;SDS011;14402;48.178;11.566;2024-01-25T01:35:55;6.2;;;1.9;;
26824;SDS011;14402;48.178;11.566;2024-01-25T01:36:25;6.2;;;1.9;;
26824;SDS011;14402;48.178;11.566;2024-01-25T01:36:55;6.5;;;2.0;;
26824;SDS011;14402;48.178;11.566;2024-01-25T01:37:25;6.8;;;2.1;;
26824;SDS011;14402;48.178;11.566;2024-01-25T01:37:55;6.8;;;2.1;;
26824;SDS011;14402;48.178;11.566;2024-01-25T01:38:26;6.8;;;2.1;;
26824;SDS011;14402;48.178;11.566;2024-01-25T01:38:56;6.9;;;2.0;;
26824;SDS011;14402;48.178;11.566;2024-01-25T01:39:26;7.1;;;2.0;;
26824;SDS011;14402;48.178;11.566;2024-01-25T01:39:56;7.1;;;2.0;;
26824;SDS011;14402;48.178;11.566;2024-01-25T01:40:26;7.1;;;2.0;;
26824;SDS011;14402;48.178;11.566;2024-01-25T01:40:56;6.5;;;2.0;;
26824;SDS011;14402;48.178;11.566;2024-01-25T01:41:26;5.9;;;2.1;;
26824;SDS011;14402;48.178;11.566;2024-01-25T01:41:56;5.9;;;2.1;;
26824;SDS011;14402;48.178;11.566;2024-01-25T01:42:26;5.9;;;2.1;;
26824;SDS011;14402;48.178;11.566;2024-01-25T01:42:59;6.3;;;2.0;;
26824;SDS011;14402;48.178;11.566;2024-01-25T01:43:26;6.7;;;2.0;;
26824;SDS011;14402;48.178;11.566;2024-01-25T01:43:56;6.7;;;2.0;;
26824;SDS011;14402;48.178;11.566;2024-01-25T01:44:26;6.7;;;2.0;;
26824;SDS011;14402;48.178;11.566;2024-01-25T01:44:56;7.3;;;2.0;;
26824;SDS011;14402;48.178;11.566;2024-01-25T01:45:26;8.0;;;1.9;;
26824;SDS011;14402;48.178;11.566;2024-01-25T01:45:58;8.0;;;1.9;;
26824;SDS011;14402;48.178;11.566;2024-01-25T01:46:29;8.0;;;1.9;;
26824;SDS011;14402;48.178;11.566;2024-01-25T01:46:56;8.1;;;2.0;;
26824;SDS011;14402;48.178;11.566;2024-01-25T01:47:26;8.2;;;2.2;;
26824;SDS011;14402;48.178;11.566;2024-01-25T01:47:56;8.2;;;2.2;;
26824;SDS011;14402;48.178;11.566;2024-01-25T01:48:27;8.2;;;2.2;;
26824;SDS011;14402;48.178;11.566;2024-01-25T01:48:56;8.4;;;2.3;;
26824;SDS011;14402;48.178;11.566;2024-01-25T01:49:27;8.6;;;2.5;;
26824;SDS011;14402;48.178;11.566;2024-01-25T01:49:57;8.6;;;2.5;;
26824;SDS011;14402;48.178;11.566;2024-01-25T01:50:27;8.6;;;2.5;;
26824;SDS011;14402;48.178;11.566;2024-01-25T01:50:57;8.8;;;2.3;;
26824;SDS011;14402;48.178;11.566;2024-01-25T01:51:27;8.9;;;2.1;;
26824;SDS011;14402;48.178;11.566;2024-01-25T01:51:57;8.9;;;2.1;;
26824;SDS011;14402;48.178;11.566;2024-01-25T01:52:27;8.9;;;2.1;;
26824;SDS011;14402;48.178;11.566;2024-01-25T01:52:57;8.4;;;2.2;;
26824;SDS011;14402;48.178;11.566;2024-01-25T01:53:27;7.8;;;2.3;;
26824;SDS011;14402;48.178;11.566;2024-01-25T01:53:57;7.8;;;2.3;;
26824;SDS011;14402;48.178;11.566;2024-01-25T01:54:27;7.8;;;2.3;;
26824;SDS011;14402;48.178;11.566;2024-01-25T01:54:57;8.1;;;2.2;;
26824;SDS011;14402;48.178;11.566;2024-01-25T01:55:27;8.3;;;2.1;;
26824;SDS011;14402;48.178;11.566;2024-01-25T01:55:57;8.3;;;2.1;;
26824;SDS011;14402;48.178;11.566;2024-01-25T01:56:27;8.3;;;2.1;;
26824;SDS011;14402;48.178;11.566;2024-01-25T01:56:57;7.9;;;2.0;;
26824;SDS011;14402;48.178;11.566;2024-01-25T01:57:27;7.4;;;2.0;;
26824;SDS011;14402;48.178;11.566;2024-01-25T01:57:58;7.4;;;2.0;;
26824;SDS011;14402;48.178;11.566;2024-01-25T01:58:27;7.4;;;2.0;;
26824;SDS011;14402;48.178;11.566;2024-01-25T01:58:58;8.3;;;2.3;;
26824;SDS011;14402;48.178;11.566;2024-01-25T01:59:28;9.2;;;2.7;;
26824;SDS011;14402;48.178;11.566;2024-01-25T01:59:58;9.2;;;2.7;;
26824;SDS011;14402;48.178;11.566;2024-01-25T02:00:28;9.2;;;2.7;;
26824;SDS011;14402;48.178;11.566;2024-01-25T02:00:58;8.4;;;2.6;;
26824;SDS011;14402;48.178;11.566;2024-01-25T02:01:28;7.6;;;2.5;;
26824;SDS011;14402;48.178;11.566;2024-01-25T02:01:58;7.6;;;2.5;;
26824;SDS011;14402;48.178;11.566;2024-01-25T02:02:28;7.6;;;2.5;;
26824;SDS011;14402;48.178;11.566;2024-01-25T02:02:58;7.1;;;2.4;;
26824;SDS011;14402;48.178;11.566;2024-01-25T02:03:28;6.7;;;2.3;;
26824;SDS011;14402;48.178;11.566;2024-01-25T02:03:58;6.7;;;2.3;;
26824;SDS011;14402;48.178;11.566;2024-01-25T02:04:28;6.7;;;2.3;;
26824;SDS011;14402;48.178;11.566;2024-01-25T02:04:58;7.7;;;2.3;;
26824;SDS011;14402;48.178;11.566;2024-01-25T02:05:28;8.7;;;2.3;;
26824;SDS011;14402;48.178;11.566;2024-01-25T02:05:58;8.7;;;2.3;;
26824;SDS011;14402;48.178;11.566;2024-01-25T02:06:28;8.7;;;2.3;;
26824;SDS011;14402;48.178;11.566;2024-01-25T02:06:58;7.8;;;2.2;;
26824;SDS011;14402;48.178;11.566;2024-01-25T02:07:28;6.8;;;2.1;;
26824;SDS011;14402;48.178;11.566;2024-01-25T02:07:58;6.8;;;2.1;;
26824;SDS011;14402;48.178;11.566;2024-01-25T02:08:28;6.8;;;2.1;;
26824;SDS011;14402;48.178;11.566;2024-01-25T02:08:59;6.2;;;1.9;;
26824;SDS011;14402;48.178;11.566;2024-01-25T02:09:29;5.7;;;1.8;;
26824;SDS011;14402;48.178;11.566;2024-01-25T02:09:59;5.7;;;1.8;;
26824;SDS011;14402;48.178;11.566;2024-01-25T02:10:29;5.7;;;1.8;;
26824;SDS011;14402;48.178;11.566;2024-01-25T02:10:59;6.1;;;1.9;;
26824;SDS011;14402;48.178;11.566;2024-01-25T02:11:29;6.6;;;2.1;;
26824;SDS011;14402;48.178;11.566;2024-01-25T02:11:59;6.6;;;2.1;;
26824;SDS011;14402;48.178;11.566;2024-01-25T02:12:29;6.6;;;2.1;;
26824;SDS011;14402;48.178;11.566;2024-01-25T02:12:59;6.8;;;2.2;;
26824;SDS011;14402;48.178;11.566;2024-01-25T02:13:29;7.1;;;2.3;;
26824;SDS011;14402;48.178;11.566;2024-01-25T02:13:59;7.1;;;2.3;;
26824;SDS011;14402;48.178;11.566;2024-01-25T02:14:30;7.1;;;2.3;;
26824;SDS011;14402;48.178;11.566;2024-01-25T02:14:59;7.8;;;2.4;;
26824;SDS011;14402;48.178;11.566;2024-01-25T02:15:29;8.4;;;2.5;;
26824;SDS011;14402;48.178;11.566;2024-01-25T02:15:59;8.4;;;2.5;;
26824;SDS011;14402;48.178;11.566;2024-01-25T02:16:29;8.4;;;2.5;;
26824;SDS011;14402;48.178;11.566;2024-01-25T02:16:59;8.0;;;2.3;;
26824;SDS011;14402;48.178;11.566;2024-01-25T02:17:30;7.6;;;2.1;;
26824;SDS011;14402;48.178;11.566;2024-01-25T02:17:59;7.6;;;2.1;;
26824;SDS011;14402;48.178;11.566;2024-01-25T02:18:29;7.6;;;2.1;;
26824;SDS011;14402;48.178;11.566;2024-01-25T02:18:59;7.6;;;2.3;;
26824;SDS011;14402;48.178;11.566;2024-01-25T02:19:30;7.7;;;2.5;;
26824;SDS011;14402;48.178;11.566;2024-01-25T02:20:00;7.7;;;2.5;;
26824;SDS011;14402;48.178;11.566;2024-01-25T02:20:30;7.7;;;2.5;;
26824;SDS011;14402;48.178;11.566;2024-01-25T02:21:00;8.0;;;2.3;;
26824;SDS011;14402;48.178;11.566;2024-01-25T02:21:30;8.3;;;2.2;;
26824;SDS011;14402;48.178;11.566;2024-01-25T02:22:00;8.3;;;2.2;;
26824;SDS011;14402;48.178;11.566;2024-01-25T02:22:30;8.3;;;2.2;;
26824;SDS011;14402;48.178;11.566;2024-01-25T02:23:00;7.9;;;2.2;;
26824;SDS011;14402;48.178;11.566;2024-01-25T02:23:30;7.4;;;2.1;;
26824;SDS011;14402;48.178;11.566;2024-01-25T02:24:00;7.4;;;2.1;;
26824;SDS011;14402;48.178;11.566;2024-01-25T02:24:30;7.4;;;2.1;;
26824;SDS011;14402;48.178;11.566;2024-01-25T02:25:00;7.1;;;1.9;;
26824;SDS011;14402;48.178;11.566;2024-01-25T02:25:30;6.8;;;1.8;;
26824;SDS011;14402;48.178;11.566;2024-01-25T02:26:00;6.8;;;1.8;;
26824;SDS011;14402;48.178;11.566;2024-01-25T02:26:30;6.8;;;1.8;;
26824;SDS011;14402;48.178;11.566;2024-01-25T02:27:00;6.3;;;1.8;;
26824;SDS011;14402;48.178;11.566;2024-01-25T02:27:30;5.8;;;1.9;;
26824;SDS011;14402;48.178;11.566;2024-01-25T02:28:00;5.8;;;1.9;;
26824;SDS011;14402;48.178;11.566;2024-01-25T02:28:30;5.8;;;1.9;;
26824;SDS011;14402;48.178;11.566;2024-01-25T02:29:00;6.2;;;1.8;;
26824;SDS011;14402;48.178;11.566;2024-01-25T02:29:31;6.5;;;1.8;;
26824;SDS011;14402;48.178;11.566;2024-01-25T02:30:01;6.5;;;1.8;;
26824;SDS011;14402;48.178;11.566;2024-01-25T02:30:31;6.5;;;1.8;;
26824;SDS011;14402;48.178;11.566;2024-01-25T02:31:01;8.6;;;2.2;;
26824;SDS011;14402;48.178;11.566;2024-01-25T02:31:31;10.8;;;2.6;;
26824;SDS011;14402;48.178;11.566;2024-01-25T02:32:01;10.8;;;2.6;;
26824;SDS011;14402;48.178;11.566;2024-01-25T02:32:31;10.8;;;2.6;;
26824;SDS011;14402;48.178;11.566;2024-01-25T02:33:01;8.9;;;2.3;;
26824;SDS011;14402;48.178;11.566;2024-01-25T02:33:31;7.1;;;2.0;;
26824;SDS011;14402;48.178;11.566;2024-01-25T02:34:01;7.1;;;2.0;;
26824;SDS011;14402;48.178;11.566;2024-01-25T02:34:31;7.1;;;2.0;;
26824;SDS011;14402;48.178;11.566;2024-01-25T02:35:01;7.1;;;2.0;;
26824;SDS011;14402;48.178;11.566;2024-01-25T02:35:31;7.2;;;2.0;;
26824;SDS011;14402;48.178;11.566;2024-01-25T02:36:01;7.2;;;2.0;;
26824;SDS011;14402;48.178;11.566;2024-01-25T02:36:31;7.2;;;2.0;;
26824;SDS011;14402;48.178;11.566;2024-01-25T02:37:01;7.2;;;2.0;;
26824;SDS011;14402;48.178;11.566;2024-01-25T02:37:31;7.3;;;2.1;;
26824;SDS011;14402;48.178;11.566;2024-01-25T02:38:01;7.3;;;2.1;;
26824;SDS011;14402;48.178;11.566;2024-01-25T02:38:31;7.3;;;2.1;;
26824;SDS011;14402;48.178;11.566;2024-01-25T02:39:01;7.7;;;2.0;;
26824;SDS011;14402;48.178;11.566;2024-01-25T02:39:31;8.0;;;1.9;;
26824;SDS011;14402;48.178;11.566;2024-01-25T02:40:02;8.0;;;1.9;;
26824;SDS011;14402;48.178;11.566;2024-01-25T02:40:32;8.0;;;1.9;;
26824;SDS011;14402;48.178;11.566;2024-01-25T02:41:02;6.4;;;1.9;;
26824;SDS011;14402;48.178;11.566;2024-01-25T02:41:32;4.9;;;1.9;;
26824;SDS011;14402;48.178;11.566;2024-01-25T02:42:02;4.9;;;1.9;;
26824;SDS011;14402;48.178;11.566;2024-01-25T02:42:32;4.9;;;1.9;;
26824;SDS011;14402;48.178;11.566;2024-01-25T02:43:02;6.5;;;2.0;;
26824;SDS011;14402;48.178;11.566;2024-01-25T02:43:32;8.1;;;2.1;;
26824;SDS011;14402;48.178;11.566;2024-01-25T02:44:02;8.1;;;2.1;;
26824;SDS011;14402;48.178;11.566;2024-01-25T02:44:32;8.1;;;2.1;;
26824;SDS011;14402;48.178;11.566;2024-01-25T02:45:02;8.2;;;2.2;;
26824;SDS011;14402;48.178;11.566;2024-01-25T02:45:32;8.3;;;2.2;;
26824;SDS011;14402;48.178;11.566;2024-01-25T02:46:02;8.3;;;2.2;;
26824;SDS011;14402;48.178;11.566;2024-01-25T02:46:32;8.3;;;2.2;;
26824;SDS011;14402;48.178;11.566;2024-01-25T02:47:02;7.9;;;2.2;;
26824;SDS011;14402;48.178;11.566;2024-01-25T02:47:32;7.4;;;2.1;;
26824;SDS011;14402;48.178;11.566;2024-01-25T02:48:02;7.4;;;2.1;;
26824;SDS011;14402;48.178;11.566;2024-01-25T02:48:32;7.4;;;2.1;;
26824;SDS011;14402;48.178;11.566;2024-01-25T02:49:02;8.0;;;2.2;;
26824;SDS011;14402;48.178;11.566;2024-01-25T02:49:32;8.6;;;2.2;;
26824;SDS011;14402;48.178;11.566;2024-01-25T02:50:03;8.6;;;2.2;;
26824;SDS011;14402;48.178;11.566;2024-01-25T02:50:33;8.6;;;2.2;;
26824;SDS011;14402;48.178;11.566;2024-01-25T02:51:03;9.1;;;2.2;;
26824;SDS011;14402;48.178;11.566;2024-01-25T02:51:33;9.5;;;2.3;;
26824;SDS011;14402;48.178;11.566;2024-01-25T02:52:03;9.5;;;2.3;;
26824;SDS011;14402;48.178;11.566;2024-01-25T02:52:33;9.5;;;2.3;;
26824;SDS011;14402;48.178;11.566;2024-01-25T02:53:03;8.2;;;2.2;;
26824;SDS011;14402;48.178;11.566;2024-01-25T02:53:33;6.9;;;2.0;;
26824;SDS011;14402;48.178;11.566;2024-01-25T02:54:03;6.9;;;2.0;;
26824;SDS011;14402;48.178;11.566;2024-01-25T02:54:34;6.9;;;2.0;;
26824;SDS011;14402;48.178;11.566;2024-01-25T02:55:03;7.5;;;2.2;;
26824;SDS011;14402;48.178;11.566;2024-01-25T02:55:33;8.1;;;2.4;;
26824;SDS011;14402;48.178;11.566;2024-01-25T02:56:03;8.1;;;2.4;;
26824;SDS011;14402;48.178;11.566;2024-01-25T02:56:33;8.1;;;2.4;;
26824;SDS011;14402;48.178;11.566;2024-01-25T02:57:03;8.6;;;2.4;;
26824;SDS011;14402;48.178;11.566;2024-01-25T02:57:33;9.0;;;2.4;;
26824;SDS011;14402;48.178;11.566;2024-01-25T02:58:03;9.0;;;2.4;;
26824;SDS011;14402;48.178;11.566;2024-01-25T02:58:33;9.0;;;2.4;;
26824;SDS011;14402;48.178;11.566;2024-01-25T02:59:03;8.5;;;2.4;;
26824;SDS011;14402;48.178;11.566;2024-01-25T02:59:33;8.0;;;2.4;;
26824;SDS011;14402;48.178;11.566;2024-01-25T03:00:04;8.0;;;2.4;;
26824;SDS011;14402;48.178;11.566;2024-01-25T03:00:34;8.0;;;2.4;;
26824;SDS011;14402;48.178;11.566;2024-01-25T03:01:04;7.8;;;2.2;;
26824;SDS011;14402;48.178;11.566;2024-01-25T03:01:37;7.7;;;2.0;;
26824;SDS011;14402;48.178;11.566;2024-01-25T03:02:04;7.7;;;2.0;;
26824;SDS011;14402;48.178;11.566;2024-01-25T03:02:34;7.7;;;2.0;;
26824;SDS011;14402;48.178;11.566;2024-01-25T03:03:04;7.4;;;2.0;;
26824;SDS011;14402;48.178;11.566;2024-01-25T03:03:34;7.1;;;1.9;;